Time;durP1;ratioP1;P1;durP2;ratioP2;P2;SDS_P1;SDS_P2;PMS_P1;PMS_P2;Temp;Humidity;BMP_temperature;BMP_pressure;BME280_temperature;BME280_humidity;BME280_pressure;Samples;Min_cycle;Max_cycle;Signal;HPM_P1;HPM_P2
2023/06/13 00:01:35;;;;;;;5.85;3.85;;;22.70;41.50;;;;;;5025923;28;20393;-47
2023/06/13 00:04:06;;;;;;;4.40;4.00;;;22.60;41.60;;;;;;5020038;28;20061;-49
2023/06/13 00:06:34;;;;;;;4.90;3.97;;;22.50;41.80;;;;;;5029218;28;20257;-46
2023/06/13 00:09:08;;;;;;;4.25;3.80;;;22.40;41.90;;;;;;5029697;28;20041;-47
2023/06/13 00:11:37;;;;;;;4.47;4.10;;;22.40;42.10;;;;;;5017715;28;20088;-49
2023/06/13 00:14:06;;;;;;;3.47;3.20;;;22.30;42.20;;;;;;5027706;28;20041;-46
2023/06/13 00:16:33;;;;;;;4.90;4.10;;;22.20;42.30;;;;;;5029046;28;20065;-49
2023/06/13 00:19:01;;;;;;;4.35;3.95;;;22.10;42.70;;;;;;5028505;28;20498;-48
2023/06/13 00:21:32;;;;;;;;;;;22.00;42.80;;;;;;5014829;28;20061;-48
2023/06/13 00:23:59;;;;;;;4.18;3.75;;;22.00;41.70;;;;;;5021491;28;19921;-49
2023/06/13 00:26:25;;;;;;;4.15;3.85;;;21.90;42.50;;;;;;5017451;28;20449;-50
2023/06/13 00:28:52;;;;;;;4.05;3.75;;;21.80;42.90;;;;;;5029208;28;20476;-51
2023/06/13 00:31:19;;;;;;;5.45;4.95;;;21.70;43.20;;;;;;5011109;28;20068;-48
2023/06/13 00:33:50;;;;;;;4.88;4.28;;;21.60;43.50;;;;;;5024651;28;20038;-48
2023/06/13 00:36:20;;;;;;;5.40;4.50;;;21.60;43.70;;;;;;5028722;28;20045;-46
2023/06/13 00:38:50;;;;;;;4.35;3.95;;;21.50;43.90;;;;;;5010742;28;20557;-47
2023/06/13 00:41:18;;;;;;;4.80;4.20;;;21.40;44.10;;;;;;5019720;28;20124;-49
2023/06/13 00:43:47;;;;;;;5.10;4.13;;;21.30;43.90;;;;;;4998345;28;20104;-47
2023/06/13 00:46:17;;;;;;;4.25;3.83;;;21.30;44.10;;;;;;5009778;28;20072;-48
2023/06/13 00:48:47;;;;;;;4.70;4.25;;;21.20;44.50;;;;;;5011043;28;20053;-47
2023/06/13 00:51:20;;;;;;;4.40;4.00;;;21.10;44.50;;;;;;5018823;28;20045;-51
2023/06/13 00:53:50;;;;;;;5.22;4.72;;;21.00;44.60;;;;;;5006775;28;20129;-47
2023/06/13 00:56:17;;;;;;;4.97;4.45;;;21.00;44.60;;;;;;5022321;28;20095;-47
2023/06/13 00:58:46;;;;;;;4.90;4.32;;;21.00;44.80;;;;;;5028921;28;20486;-50
2023/06/13 01:01:14;;;;;;;5.55;4.50;;;20.90;45.00;;;;;;5010901;28;20529;-47
2023/06/13 01:03:45;;;;;;;4.20;3.80;;;20.80;45.10;;;;;;5010249;28;20698;-48
2023/06/13 01:06:14;;;;;;;4.70;3.70;;;20.70;45.10;;;;;;4997372;28;20049;-48
2023/06/13 01:08:45;;;;;;;4.60;4.05;;;20.70;45.20;;;;;;5032435;28;20295;-48
2023/06/13 01:11:28;;;;;;;4.50;4.10;;;20.60;45.20;;;;;;5010413;28;20046;-46
2023/06/13 01:14:09;;;;;;;5.57;4.28;;;20.60;46.00;;;;;;5028515;28;20065;-50
2023/06/13 01:16:47;;;;;;;4.13;3.83;;;20.50;45.80;;;;;;5014552;28;20107;-47
2023/06/13 01:19:37;;;;;;;3.85;3.55;;;20.50;46.30;;;;;;5009261;28;20045;-48
2023/06/13 01:22:10;;;;;;;5.00;4.00;;;20.40;46.40;;;;;;5012013;28;20052;-47
2023/06/13 01:24:48;;;;;;;4.35;3.95;;;20.30;46.10;;;;;;5005363;28;20045;-48
2023/06/13 01:27:16;;;;;;;4.45;4.05;;;20.30;46.60;;;;;;5013860;28;20399;-49
2023/06/13 01:29:46;;;;;;;4.53;4.10;;;20.30;46.30;;;;;;5013673;28;20050;-49
2023/06/13 01:32:15;;;;;;;4.55;4.07;;;20.20;46.20;;;;;;5030368;28;20631;-49
2023/06/13 01:34:45;;;;;;;4.90;4.47;;;20.10;46.30;;;;;;5025007;28;20068;-48
2023/06/13 01:37:12;;;;;;;4.20;3.90;;;20.10;46.40;;;;;;5012209;28;20474;-47
2023/06/13 01:39:43;;;;;;;5.28;4.78;;;20.00;46.50;;;;;;5013138;28;20047;-50
2023/06/13 01:42:17;;;;;;;4.88;4.47;;;20.00;46.50;;;;;;5023112;28;20042;-48
2023/06/13 01:44:44;;;;;;;4.93;4.47;;;19.90;46.80;;;;;;5013473;28;20049;-46
2023/06/13 01:47:26;;;;;;;4.68;4.05;;;19.90;46.60;;;;;;5014032;28;20042;-50
2023/06/13 01:50:18;;;;;;;3.92;3.63;;;19.80;47.40;;;;;;5027385;28;20801;-47
2023/06/13 01:52:54;;;;;;;3.92;3.60;;;19.80;47.50;;;;;;5014495;28;20041;-49
2023/06/13 01:55:26;;;;;;;7.28;4.28;;;19.70;47.40;;;;;;5007592;28;20395;-47
2023/06/13 01:58:07;;;;;;;7.28;4.20;;;19.70;47.20;;;;;;5014051;28;20045;-49
2023/06/13 02:00:40;;;;;;;4.65;4.25;;;19.60;47.60;;;;;;5013080;28;20049;-51
2023/06/13 02:03:11;;;;;;;5.30;4.80;;;19.60;47.40;;;;;;5007401;28;20042;-47
2023/06/13 02:05:43;;;;;;;4.45;4.07;;;19.50;47.40;;;;;;5031069;28;20041;-46
2023/06/13 02:08:16;;;;;;;4.47;4.07;;;19.50;47.30;;;;;;5013932;28;20077;-49
2023/06/13 02:10:44;;;;;;;4.65;4.05;;;19.40;47.50;;;;;;5010799;28;20789;-47
2023/06/13 02:13:11;;;;;;;4.60;4.20;;;19.40;47.70;;;;;;5007140;28;20418;-46
2023/06/13 02:15:47;;;;;;;5.13;4.43;;;19.30;47.70;;;;;;5029886;28;20045;-48
2023/06/13 02:18:23;;;;;;;5.20;4.32;;;19.30;48.10;;;;;;5012492;28;20053;-50
2023/06/13 02:20:54;;;;;;;5.35;4.47;;;19.30;47.90;;;;;;5019082;28;20092;-48
2023/06/13 02:23:27;;;;;;;5.28;4.78;;;19.30;48.30;;;;;;5023069;28;20037;-49
2023/06/13 02:25:55;;;;;;;5.43;4.07;;;19.20;48.20;;;;;;5015241;28;20037;-49
2023/06/13 02:28:24;;;;;;;4.43;4.03;;;19.10;48.00;;;;;;5023002;28;20112;-49
2023/06/13 02:30:52;;;;;;;4.05;3.63;;;19.10;48.20;;;;;;5029110;28;20049;-53
2023/06/13 02:33:24;;;;;;;4.20;3.85;;;19.10;48.30;;;;;;5022435;28;20108;-51
2023/06/13 02:35:53;;;;;;;4.88;4.10;;;19.00;48.50;;;;;;5012563;28;20038;-51
2023/06/13 02:38:20;;;;;;;4.32;3.92;;;19.00;48.30;;;;;;5029890;28;20041;-48
2023/06/13 02:40:47;;;;;;;5.82;5.18;;;19.00;48.40;;;;;;5019288;28;20058;-47
2023/06/13 02:43:16;;;;;;;5.78;4.28;;;18.90;48.60;;;;;;5018176;28;20053;-47
2023/06/13 02:45:42;;;;;;;5.82;4.50;;;18.90;48.70;;;;;;5011989;28;20091;-47
2023/06/13 02:48:09;;;;;;;4.32;3.92;;;18.90;48.80;;;;;;5029792;28;20511;-48
2023/06/13 02:50:36;;;;;;;4.50;4.05;;;18.80;48.70;;;;;;5026174;28;20121;-49
2023/06/13 02:53:05;;;;;;;5.18;3.80;;;18.80;48.70;;;;;;5029484;28;20730;-53
2023/06/13 02:55:33;;;;;;;5.68;3.97;;;18.70;48.70;;;;;;5008313;28;20922;-46
2023/06/13 02:58:02;;;;;;;5.18;4.22;;;18.70;48.80;;;;;;5013524;28;20072;-51
2023/06/13 03:00:33;;;;;;;4.65;4.22;;;18.70;48.90;;;;;;5012941;28;20053;-46
2023/06/13 03:03:10;;;;;;;4.75;4.35;;;18.60;48.80;;;;;;5010827;28;20131;-49
2023/06/13 03:05:37;;;;;;;5.22;4.30;;;18.60;48.90;;;;;;5002985;28;20050;-49
2023/06/13 03:08:07;;;;;;;5.13;4.68;;;18.50;48.90;;;;;;5011021;28;20060;-51
2023/06/13 03:10:34;;;;;;;4.72;4.32;;;18.50;49.00;;;;;;5012719;28;20115;-47
2023/06/13 03:13:01;;;;;;;5.18;4.68;;;18.40;49.10;;;;;;5028526;28;20072;-48
2023/06/13 03:15:33;;;;;;;4.72;4.32;;;18.40;49.30;;;;;;5014582;28;20103;-48
2023/06/13 03:18:05;;;;;;;6.40;5.22;;;18.40;49.70;;;;;;5010368;28;20608;-51
2023/06/13 03:20:33;;;;;;;4.97;4.47;;;18.30;49.60;;;;;;5012261;28;20069;-51
2023/06/13 03:23:01;;;;;;;6.47;4.10;;;18.30;49.60;;;;;;5008145;28;20069;-50
2023/06/13 03:25:30;;;;;;;5.82;4.22;;;18.30;49.70;;;;;;5003685;28;20052;-51
2023/06/13 03:27:57;;;;;;;5.63;4.55;;;18.30;49.80;;;;;;5026076;28;20048;-48
2023/06/13 03:30:24;;;;;;;4.82;4.32;;;18.20;49.70;;;;;;5030714;28;20067;-47
2023/06/13 03:32:54;;;;;;;5.85;4.32;;;18.20;49.90;;;;;;5008893;28;20038;-51
2023/06/13 03:35:24;;;;;;;7.45;4.80;;;18.20;49.90;;;;;;5011217;28;20073;-50
2023/06/13 03:37:51;;;;;;;6.20;4.45;;;18.20;49.90;;;;;;5012990;28;20136;-50
2023/06/13 03:40:19;;;;;;;8.25;4.30;;;18.20;50.10;;;;;;5012265;28;20140;-48
2023/06/13 03:42:50;;;;;;;5.07;4.57;;;18.20;50.20;;;;;;5026633;28;20091;-49
2023/06/13 03:45:17;;;;;;;5.00;4.30;;;18.10;50.30;;;;;;5010226;28;20509;-47
2023/06/13 03:47:44;;;;;;;3.88;3.53;;;18.10;50.40;;;;;;5012849;28;20041;-49
2023/06/13 03:50:11;;;;;;;6.38;4.25;;;18.10;50.60;;;;;;4995582;28;20050;-50
2023/06/13 03:52:38;;;;;;;4.63;4.05;;;18.10;50.60;;;;;;5025071;28;20029;-48
2023/06/13 03:55:06;;;;;;;4.55;4.13;;;18.10;50.60;;;;;;5007602;28;20041;-46
2023/06/13 03:57:35;;;;;;;5.32;4.38;;;18.10;50.80;;;;;;5013079;28;20092;-50
2023/06/13 04:00:07;;;;;;;5.07;4.57;;;18.10;50.80;;;;;;5011223;28;20069;-49
2023/06/13 04:02:40;;;;;;;4.45;4.05;;;18.10;51.00;;;;;;5021288;28;20045;-49
2023/06/13 04:05:12;;;;;;;4.25;3.75;;;18.10;51.00;;;;;;5000992;28;20418;-47
2023/06/13 04:07:39;;;;;;;5.18;4.35;;;18.10;51.10;;;;;;5030506;28;20041;-51
2023/06/13 04:10:08;;;;;;;4.72;4.30;;;18.10;51.20;;;;;;5028806;28;20120;-50
2023/06/13 04:12:40;;;;;;;5.40;4.80;;;18.10;51.40;;;;;;5020634;28;20119;-49
2023/06/13 04:15:08;;;;;;;6.65;4.68;;;18.10;51.40;;;;;;5011782;28;20055;-47
2023/06/13 04:17:40;;;;;;;4.57;4.18;;;18.10;51.50;;;;;;5030404;28;20037;-49
2023/06/13 04:20:14;;;;;;;5.85;5.10;;;18.10;51.90;;;;;;5028671;28;20084;-48
2023/06/13 04:22:44;;;;;;;6.32;4.60;;;18.10;51.70;;;;;;5008175;28;20588;-47
2023/06/13 04:25:12;;;;;;;7.93;4.65;;;18.10;51.80;;;;;;5000062;28;20140;-47
2023/06/13 04:27:43;;;;;;;4.53;4.05;;;18.10;52.00;;;;;;5005741;28;20045;-50
2023/06/13 04:30:12;;;;;;;4.72;4.25;;;18.10;52.10;;;;;;5027332;28;20041;-46
2023/06/13 04:32:43;;;;;;;5.22;4.55;;;18.20;52.50;;;;;;5020192;28;20045;-46
2023/06/13 04:35:15;;;;;;;5.45;4.95;;;18.20;52.60;;;;;;5009152;28;20414;-49
2023/06/13 04:37:45;;;;;;;13.30;5.05;;;18.20;52.70;;;;;;5029680;28;20409;-51
2023/06/13 04:40:13;;;;;;;5.40;4.90;;;18.30;53.00;;;;;;5027723;28;20045;-49
2023/06/13 04:42:47;;;;;;;5.32;4.68;;;18.30;53.10;;;;;;5005720;28;20073;-50
2023/06/13 04:45:15;;;;;;;6.32;4.70;;;18.30;53.30;;;;;;5032795;28;20052;-50
2023/06/13 04:47:45;;;;;;;4.47;4.07;;;18.30;53.40;;;;;;5033161;28;20092;-48
2023/06/13 04:50:24;;;;;;;6.65;5.13;;;18.40;53.60;;;;;;5027632;28;20732;-48
2023/06/13 04:52:53;;;;;;;6.40;4.88;;;18.50;53.70;;;;;;5033392;28;20509;-47
2023/06/13 04:55:22;;;;;;;5.93;4.45;;;18.50;53.90;;;;;;5017654;28;20053;-49
2023/06/13 04:57:49;;;;;;;5.65;5.05;;;18.50;54.00;;;;;;5032994;28;20095;-48
2023/06/13 05:00:16;;;;;;;5.40;4.90;;;18.60;54.20;;;;;;5029431;28;20128;-47
2023/06/13 05:02:45;;;;;;;9.60;5.60;;;18.60;54.20;;;;;;5032491;28;20075;-51
2023/06/13 05:05:16;;;;;;;4.63;3.92;;;18.70;54.30;;;;;;5019204;28;20037;-51
2023/06/13 05:07:43;;;;;;;5.45;4.95;;;18.70;54.40;;;;;;5027704;28;20437;-48
2023/06/13 05:10:09;;;;;;;5.25;4.22;;;18.80;54.50;;;;;;5031361;28;20049;-46
2023/06/13 05:12:39;;;;;;;6.60;5.82;;;18.80;54.70;;;;;;5031436;28;20043;-47
2023/06/13 05:15:06;;;;;;;5.38;4.75;;;18.90;54.70;;;;;;5018224;28;20289;-52
2023/06/13 05:17:34;;;;;;;5.43;4.78;;;19.00;54.80;;;;;;5021423;28;20715;-50
2023/06/13 05:20:01;;;;;;;5.63;4.65;;;19.00;54.80;;;;;;5030762;28;20053;-50
2023/06/13 05:22:28;;;;;;;4.90;4.25;;;19.10;55.00;;;;;;5025201;28;20556;-51
2023/06/13 05:24:59;;;;;;;6.13;5.03;;;19.20;54.80;;;;;;5007433;28;20101;-49
2023/06/13 05:27:27;;;;;;;5.88;4.78;;;19.20;54.90;;;;;;5026067;28;20107;-51
2023/06/13 05:29:54;;;;;;;4.60;4.18;;;19.30;54.40;;;;;;5030704;28;20046;-50
2023/06/13 05:32:20;;;;;;;4.90;4.45;;;19.40;54.30;;;;;;5021066;28;20038;-49
2023/06/13 05:34:47;;;;;;;4.57;4.18;;;19.50;54.30;;;;;;5029372;28;20405;-50
2023/06/13 05:37:14;;;;;;;5.72;5.13;;;19.60;53.20;;;;;;5031719;28;20055;-52
2023/06/13 05:39:41;;;;;;;5.55;4.82;;;19.60;52.50;;;;;;5028857;28;20041;-53
2023/06/13 05:42:08;;;;;;;6.47;5.32;;;19.70;52.80;;;;;;5025539;28;20074;-51
2023/06/13 05:44:35;;;;;;;6.38;4.82;;;19.80;52.60;;;;;;5033056;28;20103;-51
2023/06/13 05:47:02;;;;;;;5.57;4.60;;;19.90;51.60;;;;;;5032459;28;20087;-52
2023/06/13 05:49:29;;;;;;;5.82;4.45;;;20.00;51.90;;;;;;5022451;28;20085;-50
2023/06/13 05:51:56;;;;;;;5.10;4.32;;;20.10;51.80;;;;;;5027744;28;20049;-48
2023/06/13 05:54:22;;;;;;;6.15;4.80;;;20.20;51.30;;;;;;5005306;28;20100;-53
2023/06/13 05:56:49;;;;;;;5.90;4.85;;;20.30;51.70;;;;;;5027342;28;20056;-53
2023/06/13 05:59:15;;;;;;;4.38;4.00;;;20.40;51.70;;;;;;5032296;28;20068;-50
2023/06/13 06:01:42;;;;;;;6.38;4.68;;;20.50;51.20;;;;;;5014668;28;20091;-51
2023/06/13 06:04:09;;;;;;;4.90;4.50;;;20.50;50.50;;;;;;5021975;28;20052;-55
2023/06/13 06:06:37;;;;;;;6.43;4.95;;;20.60;50.00;;;;;;5025415;28;20045;-52
2023/06/13 06:09:04;;;;;;;5.78;4.55;;;20.70;49.90;;;;;;5032226;28;20052;-53
2023/06/13 06:11:31;;;;;;;7.28;5.07;;;20.80;49.40;;;;;;5013374;28;20049;-51
2023/06/13 06:13:58;;;;;;;4.57;4.10;;;20.90;49.20;;;;;;5021749;28;20434;-52
2023/06/13 06:16:24;;;;;;;7.32;4.97;;;21.00;48.80;;;;;;5022900;28;20405;-48
2023/06/13 06:18:53;;;;;;;4.72;4.32;;;21.00;48.50;;;;;;5031365;28;20120;-52
2023/06/13 06:21:20;;;;;;;5.90;4.53;;;21.10;48.30;;;;;;5030064;28;20080;-52
2023/06/13 06:23:47;;;;;;;5.55;4.13;;;21.20;48.30;;;;;;5014653;28;20518;-51
2023/06/13 06:26:14;;;;;;;6.05;4.35;;;21.30;47.60;;;;;;5030042;28;20048;-49
2023/06/13 06:28:41;;;;;;;7.57;4.45;;;21.40;47.30;;;;;;5031290;28;20091;-50
2023/06/13 06:31:09;;;;;;;7.43;4.65;;;21.40;47.10;;;;;;5029615;28;20574;-51
2023/06/13 06:33:36;;;;;;;5.10;4.13;;;21.50;46.90;;;;;;5020895;28;20040;-52
2023/06/13 06:36:03;;;;;;;4.95;4.22;;;21.60;47.10;;;;;;5013263;28;20048;-53
2023/06/13 06:38:30;;;;;;;6.60;4.97;;;21.70;46.60;;;;;;5030222;28;20121;-52
2023/06/13 06:40:57;;;;;;;6.20;4.20;;;21.70;46.40;;;;;;5016343;28;20570;-52
2023/06/13 06:43:24;;;;;;;4.82;4.40;;;21.80;46.40;;;;;;5029804;28;20049;-52
2023/06/13 06:45:53;;;;;;;7.00;4.60;;;21.90;46.10;;;;;;5012858;28;20045;-49
2023/06/13 06:48:22;;;;;;;5.75;3.75;;;21.90;45.50;;;;;;5022346;28;20065;-51
2023/06/13 06:50:48;;;;;;;4.95;4.47;;;22.00;45.40;;;;;;5029693;28;20033;-52
2023/06/13 06:53:15;;;;;;;4.45;3.85;;;22.10;45.00;;;;;;4993283;28;20126;-52
2023/06/13 06:55:42;;;;;;;4.32;3.88;;;22.20;45.20;;;;;;5023329;28;20090;-53
2023/06/13 06:58:09;;;;;;;5.25;4.25;;;22.20;45.00;;;;;;5012907;28;20050;-51
2023/06/13 07:00:36;;;;;;;5.45;3.85;;;22.30;44.90;;;;;;5030227;28;20049;-53
2023/06/13 07:03:03;;;;;;;4.93;4.53;;;22.40;44.90;;;;;;5019906;28;20045;-53
2023/06/13 07:05:29;;;;;;;4.57;4.10;;;22.40;44.60;;;;;;5028464;28;20050;-52
2023/06/13 07:07:56;;;;;;;5.57;4.00;;;22.50;44.50;;;;;;5026148;28;20129;-53
2023/06/13 07:10:24;;;;;;;5.25;4.07;;;22.50;44.10;;;;;;5000104;28;20096;-51
2023/06/13 07:12:50;;;;;;;6.68;4.50;;;22.60;44.90;;;;;;5030104;28;20037;-53
2023/06/13 07:15:17;;;;;;;7.78;4.43;;;22.70;44.30;;;;;;5029607;28;20465;-52
2023/06/13 07:17:44;;;;;;;7.07;4.15;;;22.80;44.20;;;;;;5022158;28;20064;-53
2023/06/13 07:20:13;;;;;;;6.45;4.20;;;22.80;44.30;;;;;;5029384;28;20092;-51
2023/06/13 07:22:41;;;;;;;5.03;4.18;;;22.80;44.20;;;;;;5029261;28;20049;-51
2023/06/13 07:25:10;;;;;;;6.05;4.15;;;22.90;43.90;;;;;;5021157;28;20053;-49
2023/06/13 07:27:37;;;;;;;5.85;3.67;;;23.00;43.90;;;;;;5037702;28;20513;-49
2023/06/13 07:30:04;;;;;;;8.05;4.30;;;23.00;43.80;;;;;;5030503;28;20041;-52
2023/06/13 07:32:31;;;;;;;4.90;4.00;;;23.00;43.70;;;;;;5030733;28;20525;-50
2023/06/13 07:34:58;;;;;;;5.10;4.38;;;23.10;43.60;;;;;;5028457;28;20076;-55
2023/06/13 07:37:32;;;;;;;8.00;4.40;;;23.20;43.50;;;;;;5029290;28;20056;-53
2023/06/13 07:39:59;;;;;;;7.10;4.57;;;23.20;43.80;;;;;;5027417;28;20076;-53
2023/06/13 07:42:26;;;;;;;6.10;4.20;;;23.30;43.10;;;;;;5025160;28;20510;-52
2023/06/13 07:44:53;;;;;;;4.50;4.10;;;23.30;43.00;;;;;;5029155;28;20041;-49
2023/06/13 07:47:20;;;;;;;6.70;4.05;;;23.40;43.20;;;;;;5029673;28;20061;-54
2023/06/13 07:49:47;;;;;;;5.13;4.00;;;23.40;43.00;;;;;;5027743;28;20282;-53
2023/06/13 07:52:14;;;;;;;4.68;4.05;;;23.50;42.90;;;;;;5008129;28;20095;-53
2023/06/13 07:54:41;;;;;;;6.35;4.03;;;23.60;42.30;;;;;;5020969;28;20095;-53
2023/06/13 07:57:07;;;;;;;6.68;4.00;;;23.60;42.20;;;;;;5028065;28;20041;-52
2023/06/13 07:59:55;;;;;;;4.43;3.83;;;23.70;42.20;;;;;;5022960;28;20525;-50
2023/06/13 08:02:23;;;;;;;5.30;3.90;;;23.70;41.70;;;;;;5029027;28;20065;-53
2023/06/13 08:04:51;;;;;;;3.97;3.58;;;23.80;41.40;;;;;;5023740;28;20044;-54
2023/06/13 08:07:20;;;;;;;4.38;3.97;;;23.90;41.50;;;;;;5026214;28;20041;-51
2023/06/13 08:09:47;;;;;;;6.05;3.92;;;23.90;41.80;;;;;;5029754;28;20045;-50
2023/06/13 08:12:14;;;;;;;5.32;3.65;;;23.90;41.50;;;;;;5028063;28;20429;-52
2023/06/13 08:14:41;;;;;;;4.30;3.88;;;24.00;41.50;;;;;;5022049;28;20068;-51
2023/06/13 08:17:07;;;;;;;5.38;4.32;;;24.10;40.20;;;;;;5011691;28;20075;-55
2023/06/13 08:19:34;;;;;;;6.10;4.18;;;24.10;40.10;;;;;;5029934;28;20062;-55
2023/06/13 08:22:01;;;;;;;4.97;3.47;;;24.20;40.40;;;;;;5023091;28;20072;-50
2023/06/13 08:24:28;;;;;;;5.15;4.20;;;24.20;40.40;;;;;;5003474;28;20115;-53
2023/06/13 08:26:55;;;;;;;6.63;4.07;;;24.30;40.20;;;;;;5028070;28;20050;-53
2023/06/13 08:29:23;;;;;;;4.70;3.72;;;24.40;40.60;;;;;;5028966;28;20068;-52
2023/06/13 08:31:50;;;;;;;4.25;3.85;;;24.40;40.80;;;;;;5025008;28;20073;-52
2023/06/13 08:34:17;;;;;;;4.00;3.70;;;24.50;40.80;;;;;;5008512;28;20041;-49
2023/06/13 08:36:44;;;;;;;4.70;3.83;;;24.50;40.70;;;;;;5028478;28;20042;-51
2023/06/13 08:39:11;;;;;;;4.10;3.70;;;24.60;40.20;;;;;;5025207;28;20555;-48
2023/06/13 08:41:38;;;;;;;4.32;3.88;;;24.70;40.30;;;;;;5004938;28;20053;-53
2023/06/13 08:44:06;;;;;;;5.15;4.05;;;24.70;40.30;;;;;;5022494;28;20049;-50
2023/06/13 08:46:36;;;;;;;4.32;3.80;;;24.80;40.00;;;;;;5028290;28;20073;-53
2023/06/13 08:49:03;;;;;;;4.97;4.32;;;24.80;39.80;;;;;;5029252;28;20046;-51
2023/06/13 08:51:31;;;;;;;4.30;3.90;;;24.90;39.40;;;;;;5019371;28;20124;-50
2023/06/13 08:54:02;;;;;;;3.83;3.53;;;24.90;39.00;;;;;;5025947;28;20081;-49
2023/06/13 08:56:37;;;;;;;3.95;3.60;;;25.00;38.90;;;;;;5025477;28;20390;-53
2023/06/13 08:59:26;;;;;;;5.10;3.63;;;25.00;38.60;;;;;;5029494;28;20061;-52
2023/06/13 09:01:54;;;;;;;4.25;3.50;;;25.10;38.60;;;;;;5026075;28;20054;-51
2023/06/13 09:04:23;;;;;;;4.70;4.18;;;25.10;38.30;;;;;;5017346;28;20068;-51
2023/06/13 09:06:50;;;;;;;4.70;4.03;;;25.10;38.10;;;;;;5020840;28;20080;-50
2023/06/13 09:09:18;;;;;;;4.75;4.20;;;25.20;38.10;;;;;;5029026;28;20268;-53
2023/06/13 09:11:47;;;;;;;3.75;3.50;;;25.20;38.50;;;;;;5022540;28;20033;-52
2023/06/13 09:14:19;;;;;;;4.03;3.70;;;25.30;38.50;;;;;;5022123;28;20088;-51
2023/06/13 09:16:52;;;;;;;6.60;4.50;;;25.30;38.40;;;;;;5028128;28;20113;-52
2023/06/13 09:19:20;;;;;;;4.88;4.38;;;25.40;37.90;;;;;;5020133;28;20058;-53
2023/06/13 09:21:47;;;;;;;7.18;4.07;;;25.50;38.00;;;;;;5026002;28;20046;-50
2023/06/13 09:24:13;;;;;;;4.13;3.72;;;25.50;37.90;;;;;;5020857;28;20573;-52
2023/06/13 09:26:40;;;;;;;3.85;3.53;;;25.60;37.80;;;;;;5029065;28;20115;-52
2023/06/13 09:29:07;;;;;;;4.88;4.30;;;25.60;37.20;;;;;;5032578;28;20044;-50
2023/06/13 09:31:47;;;;;;;3.90;3.50;;;25.60;37.50;;;;;;5025188;28;20042;-50
2023/06/13 09:34:15;;;;;;;4.07;3.53;;;25.80;37.60;;;;;;5029010;28;20037;-53
2023/06/13 09:36:43;;;;;;;5.93;3.42;;;25.80;37.00;;;;;;5013388;28;20050;-52
2023/06/13 09:39:10;;;;;;;4.30;3.88;;;25.80;37.30;;;;;;5032865;28;20115;-52
2023/06/13 09:41:37;;;;;;;4.82;3.67;;;25.90;37.10;;;;;;5024648;28;20146;-52
2023/06/13 09:44:04;;;;;;;5.05;4.55;;;25.90;36.30;;;;;;5023338;28;20049;-51
2023/06/13 09:46:37;;;;;;;4.43;4.13;;;26.00;36.40;;;;;;5031209;28;20075;-53
2023/06/13 09:49:06;;;;;;;5.90;3.78;;;26.10;36.00;;;;;;5028706;28;20046;-50
2023/06/13 09:51:32;;;;;;;4.15;3.70;;;26.20;36.10;;;;;;5014581;28;20469;-50
2023/06/13 09:54:02;;;;;;;3.65;3.35;;;26.20;36.00;;;;;;5008330;28;20065;-52
2023/06/13 09:56:29;;;;;;;4.25;3.55;;;26.20;35.70;;;;;;5026594;28;20049;-52
2023/06/13 09:58:56;;;;;;;5.72;3.70;;;26.30;35.60;;;;;;5032248;28;20049;-51
2023/06/13 10:01:23;;;;;;;4.47;3.65;;;26.30;35.50;;;;;;5031195;28;20076;-49
2023/06/13 10:03:51;;;;;;;4.68;3.60;;;26.30;35.50;;;;;;5022905;28;20042;-54
2023/06/13 10:06:18;;;;;;;4.95;3.55;;;26.40;35.10;;;;;;5030990;28;20072;-51
2023/06/13 10:08:45;;;;;;;4.75;4.15;;;26.40;35.40;;;;;;5030405;28;20502;-50
2023/06/13 10:11:23;;;;;;;3.88;3.58;;;26.40;35.50;;;;;;5024837;28;20120;-49
2023/06/13 10:13:59;;;;;;;5.45;3.88;;;26.50;35.20;;;;;;5030315;28;20042;-50
2023/06/13 10:16:27;;;;;;;4.70;4.30;;;26.50;35.50;;;;;;5027363;28;20068;-52
2023/06/13 10:18:57;;;;;;;5.10;3.53;;;26.60;35.00;;;;;;5024500;28;20125;-52
2023/06/13 10:21:24;;;;;;;5.03;3.50;;;26.70;35.10;;;;;;5006323;28;20457;-50
2023/06/13 10:23:56;;;;;;;3.85;3.45;;;26.70;35.10;;;;;;5026064;28;20124;-53
2023/06/13 10:26:36;;;;;;;5.13;3.58;;;26.80;34.60;;;;;;5025487;28;20121;-53
2023/06/13 10:29:45;;;;;;;5.53;3.95;;;26.90;34.90;;;;;;5030439;28;20581;-51
2023/06/13 10:32:20;;;;;;;3.80;3.50;;;26.90;34.50;;;;;;5029181;28;20045;-51
2023/06/13 10:35:16;;;;;;;4.18;3.80;;;27.00;34.40;;;;;;5027894;28;20069;-49
2023/06/13 10:38:05;;;;;;;4.10;3.45;;;27.00;34.20;;;;;;5030465;28;20040;-50
2023/06/13 10:40:57;;;;;;;5.40;3.50;;;27.10;34.00;;;;;;5023979;28;20108;-51
2023/06/13 10:43:26;;;;;;;3.97;3.57;;;27.10;34.10;;;;;;5028103;28;20120;-50
2023/06/13 10:45:57;;;;;;;4.30;3.55;;;27.20;34.20;;;;;;5030289;28;20049;-52
2023/06/13 10:48:47;;;;;;;6.28;3.90;;;27.20;34.30;;;;;;5028417;28;20595;-50
2023/06/13 10:51:19;;;;;;;4.00;3.70;;;27.30;34.40;;;;;;5025960;28;20048;-51
2023/06/13 10:53:55;;;;;;;4.47;4.07;;;27.40;34.00;;;;;;5027176;28;20064;-49
2023/06/13 10:56:31;;;;;;;7.18;4.53;;;27.40;34.20;;;;;;5023075;28;20045;-51
2023/06/13 10:59:02;;;;;;;4.40;3.60;;;27.50;33.70;;;;;;5030277;28;20042;-51
2023/06/13 11:01:31;;;;;;;4.68;4.28;;;27.50;33.50;;;;;;5029521;28;20064;-53
2023/06/13 11:04:08;;;;;;;3.85;3.55;;;27.60;33.30;;;;;;5020308;28;20498;-51
2023/06/13 11:06:37;;;;;;;4.60;4.15;;;27.70;33.20;;;;;;5027113;28;20052;-51
2023/06/13 11:09:24;;;;;;;6.00;4.18;;;27.70;33.50;;;;;;5011355;28;20033;-54
2023/06/13 11:11:55;;;;;;;4.90;3.88;;;27.80;33.80;;;;;;5022403;28;20103;-50
2023/06/13 11:14:33;;;;;;;5.00;4.10;;;27.80;33.40;;;;;;5038462;28;20099;-52
2023/06/13 11:17:02;;;;;;;4.55;4.10;;;27.90;32.70;;;;;;5030514;28;20053;-53
2023/06/13 11:19:33;;;;;;;4.30;3.85;;;27.90;32.60;;;;;;5024965;28;20080;-51
2023/06/13 11:22:01;;;;;;;4.60;4.20;;;28.00;33.30;;;;;;5029065;28;20760;-53
2023/06/13 11:24:28;;;;;;;4.78;4.07;;;28.00;32.60;;;;;;5020697;28;20069;-50
2023/06/13 11:26:57;;;;;;;7.45;4.22;;;28.10;32.70;;;;;;5030103;28;20508;-50
2023/06/13 11:29:24;;;;;;;4.38;3.97;;;28.10;32.70;;;;;;5029519;28;20108;-52
2023/06/13 11:31:53;;;;;;;4.88;3.85;;;28.20;32.70;;;;;;5024266;28;20421;-52
2023/06/13 11:34:25;;;;;;;4.75;3.63;;;28.30;33.00;;;;;;5025709;28;20034;-53
2023/06/13 11:37:15;;;;;;;5.88;4.20;;;28.30;32.80;;;;;;5012487;28;20644;-51
2023/06/13 11:39:47;;;;;;;6.25;4.30;;;28.30;32.00;;;;;;5028831;28;20532;-53
2023/06/13 11:42:26;;;;;;;4.68;4.18;;;28.40;33.20;;;;;;5024817;28;20047;-48
2023/06/13 11:44:55;;;;;;;4.72;4.18;;;28.50;32.50;;;;;;5036121;28;20117;-52
2023/06/13 11:47:22;;;;;;;4.53;4.13;;;28.50;32.20;;;;;;5030313;28;20136;-52
2023/06/13 11:49:58;;;;;;;5.20;4.40;;;28.60;32.70;;;;;;5028286;28;20037;-54
2023/06/13 11:52:25;;;;;;;4.10;3.80;;;28.70;32.10;;;;;;5018126;28;20048;-53
2023/06/13 11:54:54;;;;;;;5.03;4.28;;;28.80;32.80;;;;;;5017477;28;20099;-53
2023/06/13 11:57:21;;;;;;;7.35;4.38;;;28.90;32.40;;;;;;5026878;28;20033;-52
2023/06/13 11:59:57;;;;;;;4.13;3.83;;;29.00;31.70;;;;;;5011353;28;20052;-52
2023/06/13 12:02:27;;;;;;;4.35;3.53;;;29.20;31.40;;;;;;5024391;28;20406;-53
2023/06/13 12:04:54;;;;;;;4.65;4.25;;;29.20;31.40;;;;;;5011817;28;20065;-53
2023/06/13 12:07:21;;;;;;;4.80;4.40;;;29.30;31.50;;;;;;5029009;28;20837;-54
2023/06/13 12:09:47;;;;;;;4.75;4.25;;;29.40;31.90;;;;;;5027574;28;20049;-52
2023/06/13 12:12:14;;;;;;;5.65;4.20;;;29.40;31.10;;;;;;5018625;28;20068;-52
2023/06/13 12:14:41;;;;;;;4.47;3.95;;;29.50;31.20;;;;;;5027223;28;20037;-52
2023/06/13 12:17:09;;;;;;;6.50;4.40;;;29.60;30.70;;;;;;5029233;28;20537;-51
2023/06/13 12:19:36;;;;;;;4.63;4.22;;;29.70;30.20;;;;;;5024774;28;20125;-51
2023/06/13 12:22:03;;;;;;;3.83;3.30;;;29.80;30.30;;;;;;5028483;28;20581;-51
2023/06/13 12:24:30;;;;;;;4.85;4.35;;;29.90;30.30;;;;;;5023727;28;20103;-52
2023/06/13 12:26:57;;;;;;;4.90;4.07;;;30.00;30.70;;;;;;5026069;28;20044;-51
2023/06/13 12:29:27;;;;;;;6.78;4.10;;;30.00;30.00;;;;;;5028513;28;20096;-51
2023/06/13 12:31:59;;;;;;;4.57;4.15;;;30.10;29.90;;;;;;5024154;28;20536;-53
2023/06/13 12:34:31;;;;;;;4.22;3.92;;;30.20;29.80;;;;;;5024277;28;20490;-52
2023/06/13 12:37:04;;;;;;;5.13;4.07;;;30.30;29.90;;;;;;5029378;28;20030;-54
2023/06/13 12:39:31;;;;;;;6.20;4.20;;;30.30;30.10;;;;;;5027263;28;20045;-51
2023/06/13 12:42:01;;;;;;;4.38;3.97;;;30.40;29.90;;;;;;5018949;28;20053;-52
2023/06/13 12:44:31;;;;;;;4.68;4.15;;;30.50;30.00;;;;;;5024583;28;20041;-48
2023/06/13 12:46:59;;;;;;;4.40;4.00;;;30.60;29.90;;;;;;5029375;28;20044;-51
2023/06/13 12:49:26;;;;;;;4.97;4.43;;;30.60;30.00;;;;;;5025554;28;20038;-51
2023/06/13 12:51:53;;;;;;;4.75;4.10;;;30.70;29.90;;;;;;5028341;28;20572;-53
2023/06/13 12:54:23;;;;;;;4.70;4.30;;;30.80;29.50;;;;;;5018955;28;20873;-54
2023/06/13 12:57:08;;;;;;;4.65;4.25;;;30.90;29.60;;;;;;5026976;28;20426;-49
2023/06/13 12:59:42;;;;;;;5.03;4.53;;;31.00;29.20;;;;;;5026932;28;20049;-54
2023/06/13 13:02:19;;;;;;;4.07;3.78;;;31.20;29.20;;;;;;5028393;28;20042;-50